sensor_id;sensor_type;location;lat;lon;timestamp;temperature;humidity
65824;SHT31;52585;47.566;19.056;2023-01-29T00:02:24;4.24;69.49
65824;SHT31;52585;47.566;19.056;2023-01-29T00:04:50;4.25;69.40
65824;SHT31;52585;47.566;19.056;2023-01-29T00:07:15;4.25;69.35
65824;SHT31;52585;47.566;19.056;2023-01-29T00:09:41;4.24;69.29
65824;SHT31;52585;47.566;19.056;2023-01-29T00:12:06;4.23;69.26
65824;SHT31;52585;47.566;19.056;2023-01-29T00:14:35;4.21;69.22
65824;SHT31;52585;47.566;19.056;2023-01-29T00:17:01;4.18;69.20
65824;SHT31;52585;47.566;19.056;2023-01-29T00:19:26;4.15;69.20
65824;SHT31;52585;47.566;19.056;2023-01-29T00:21:52;4.14;69.23
65824;SHT31;52585;47.566;19.056;2023-01-29T00:24:18;4.12;69.31
65824;SHT31;52585;47.566;19.056;2023-01-29T00:26:43;4.12;69.34
65824;SHT31;52585;47.566;19.056;2023-01-29T00:29:09;4.11;69.39
65824;SHT31;52585;47.566;19.056;2023-01-29T00:31:35;4.13;69.41
65824;SHT31;52585;47.566;19.056;2023-01-29T00:34:01;4.14;69.36
65824;SHT31;52585;47.566;19.056;2023-01-29T00:36:27;4.13;69.31
65824;SHT31;52585;47.566;19.056;2023-01-29T00:38:54;4.12;69.22
65824;SHT31;52585;47.566;19.056;2023-01-29T00:41:23;4.11;69.18
65824;SHT31;52585;47.566;19.056;2023-01-29T00:44:11;4.09;69.16
65824;SHT31;52585;47.566;19.056;2023-01-29T00:46:55;4.05;69.17
65824;SHT31;52585;47.566;19.056;2023-01-29T00:49:21;4.02;69.12
65824;SHT31;52585;47.566;19.056;2023-01-29T00:51:47;3.98;69.10
65824;SHT31;52585;47.566;19.056;2023-01-29T00:54:33;3.96;69.08
65824;SHT31;52585;47.566;19.056;2023-01-29T00:56:59;3.93;69.13
65824;SHT31;52585;47.566;19.056;2023-01-29T00:59:26;3.92;69.16
65824;SHT31;52585;47.566;19.056;2023-01-29T01:01:53;3.91;69.21
65824;SHT31;52585;47.566;19.056;2023-01-29T01:04:37;3.90;69.26
65824;SHT31;52585;47.566;19.056;2023-01-29T01:07:03;3.88;69.21
65824;SHT31;52585;47.566;19.056;2023-01-29T01:09:28;3.86;69.21
65824;SHT31;52585;47.566;19.056;2023-01-29T01:12:12;3.83;69.13
65824;SHT31;52585;47.566;19.056;2023-01-29T01:14:38;3.79;69.11
65824;SHT31;52585;47.566;19.056;2023-01-29T01:17:07;3.78;69.10
65824;SHT31;52585;47.566;19.056;2023-01-29T01:19:33;3.74;69.10
65824;SHT31;52585;47.566;19.056;2023-01-29T01:22:00;3.72;69.11
65824;SHT31;52585;47.566;19.056;2023-01-29T01:24:25;3.71;69.10
65824;SHT31;52585;47.566;19.056;2023-01-29T01:26:51;3.70;69.08
65824;SHT31;52585;47.566;19.056;2023-01-29T01:29:17;3.68;69.12
65824;SHT31;52585;47.566;19.056;2023-01-29T01:31:42;3.68;69.22
65824;SHT31;52585;47.566;19.056;2023-01-29T01:34:09;3.67;69.19
65824;SHT31;52585;47.566;19.056;2023-01-29T01:36:34;3.66;69.22
65824;SHT31;52585;47.566;19.056;2023-01-29T01:39:00;3.65;69.22
65824;SHT31;52585;47.566;19.056;2023-01-29T01:41:25;3.66;69.22
65824;SHT31;52585;47.566;19.056;2023-01-29T01:43:58;3.67;69.17
65824;SHT31;52585;47.566;19.056;2023-01-29T01:46:30;3.66;69.12
65824;SHT31;52585;47.566;19.056;2023-01-29T01:51:43;3.63;69.18
65824;SHT31;52585;47.566;19.056;2023-01-29T01:54:19;3.60;69.20
65824;SHT31;52585;47.566;19.056;2023-01-29T01:56:55;3.57;69.20
65824;SHT31;52585;47.566;19.056;2023-01-29T01:59:45;3.56;69.22
65824;SHT31;52585;47.566;19.056;2023-01-29T02:02:17;3.56;69.30
65824;SHT31;52585;47.566;19.056;2023-01-29T02:05:02;3.55;69.37
65824;SHT31;52585;47.566;19.056;2023-01-29T02:07:47;3.53;69.38
65824;SHT31;52585;47.566;19.056;2023-01-29T02:10:40;3.55;69.36
65824;SHT31;52585;47.566;19.056;2023-01-29T02:13:11;3.56;69.29
65824;SHT31;52585;47.566;19.056;2023-01-29T02:15:41;3.57;69.21
65824;SHT31;52585;47.566;19.056;2023-01-29T02:18:12;3.56;69.18
65824;SHT31;52585;47.566;19.056;2023-01-29T02:20:42;3.56;69.11
65824;SHT31;52585;47.566;19.056;2023-01-29T02:26:35;3.51;69.05
65824;SHT31;52585;47.566;19.056;2023-01-29T02:29:18;3.47;69.02
65824;SHT31;52585;47.566;19.056;2023-01-29T02:38:12;3.40;69.10
65824;SHT31;52585;47.566;19.056;2023-01-29T02:44:36;3.42;69.20
65824;SHT31;52585;47.566;19.056;2023-01-29T02:47:10;3.42;69.12
65824;SHT31;52585;47.566;19.056;2023-01-29T02:50:05;3.41;69.11
65824;SHT31;52585;47.566;19.056;2023-01-29T02:58:21;3.37;69.10
65824;SHT31;52585;47.566;19.056;2023-01-29T03:00:58;3.33;69.13
65824;SHT31;52585;47.566;19.056;2023-01-29T03:03:42;3.31;69.13
65824;SHT31;52585;47.566;19.056;2023-01-29T03:11:37;3.28;69.20
65824;SHT31;52585;47.566;19.056;2023-01-29T03:14:10;3.29;69.34
65824;SHT31;52585;47.566;19.056;2023-01-29T03:16:44;3.30;69.42
65824;SHT31;52585;47.566;19.056;2023-01-29T03:19:35;3.31;69.50
65824;SHT31;52585;47.566;19.056;2023-01-29T03:22:08;3.32;69.49
65824;SHT31;52585;47.566;19.056;2023-01-29T03:24:44;3.32;69.44
65824;SHT31;52585;47.566;19.056;2023-01-29T03:27:40;3.33;69.42
65824;SHT31;52585;47.566;19.056;2023-01-29T03:30:33;3.35;69.40
65824;SHT31;52585;47.566;19.056;2023-01-29T03:33:23;3.35;69.36
65824;SHT31;52585;47.566;19.056;2023-01-29T03:36:01;3.35;69.36
65824;SHT31;52585;47.566;19.056;2023-01-29T03:38:37;3.35;69.31
65824;SHT31;52585;47.566;19.056;2023-01-29T03:41:16;3.33;69.32
65824;SHT31;52585;47.566;19.056;2023-01-29T03:44:00;3.33;69.49
65824;SHT31;52585;47.566;19.056;2023-01-29T03:46:58;3.35;69.55
65824;SHT31;52585;47.566;19.056;2023-01-29T03:55:37;3.38;69.51
65824;SHT31;52585;47.566;19.056;2023-01-29T03:58:24;3.40;69.50
65824;SHT31;52585;47.566;19.056;2023-01-29T04:01:23;3.40;69.41
65824;SHT31;52585;47.566;19.056;2023-01-29T04:04:40;3.39;69.40
65824;SHT31;52585;47.566;19.056;2023-01-29T04:06:53;3.39;69.40
65824;SHT31;52585;47.566;19.056;2023-01-29T04:09:33;3.40;69.34
65824;SHT31;52585;47.566;19.056;2023-01-29T04:12:25;3.41;69.31
65824;SHT31;52585;47.566;19.056;2023-01-29T04:15:01;3.42;69.32
65824;SHT31;52585;47.566;19.056;2023-01-29T04:17:36;3.43;69.37
65824;SHT31;52585;47.566;19.056;2023-01-29T04:20:06;3.42;69.39
65824;SHT31;52585;47.566;19.056;2023-01-29T04:22:34;3.44;69.46
65824;SHT31;52585;47.566;19.056;2023-01-29T04:25:07;3.47;69.34
65824;SHT31;52585;47.566;19.056;2023-01-29T04:30:22;3.51;69.34
65824;SHT31;52585;47.566;19.056;2023-01-29T04:42:40;3.52;69.10
65824;SHT31;52585;47.566;19.056;2023-01-29T04:45:15;3.50;69.10
65824;SHT31;52585;47.566;19.056;2023-01-29T04:48:03;3.49;69.18
65824;SHT31;52585;47.566;19.056;2023-01-29T04:53:46;3.49;69.20
65824;SHT31;52585;47.566;19.056;2023-01-29T04:56:35;3.49;69.28
65824;SHT31;52585;47.566;19.056;2023-01-29T04:59:06;3.52;69.22
65824;SHT31;52585;47.566;19.056;2023-01-29T05:01:38;3.54;69.24
65824;SHT31;52585;47.566;19.056;2023-01-29T05:04:07;3.57;69.23
65824;SHT31;52585;47.566;19.056;2023-01-29T05:06:37;3.58;69.20
65824;SHT31;52585;47.566;19.056;2023-01-29T05:09:05;3.59;69.12
65824;SHT31;52585;47.566;19.056;2023-01-29T05:11:33;3.58;69.10
65824;SHT31;52585;47.566;19.056;2023-01-29T05:14:01;3.58;69.10
65824;SHT31;52585;47.566;19.056;2023-01-29T05:16:33;3.56;69.01
65824;SHT31;52585;47.566;19.056;2023-01-29T05:19:08;3.54;69.00
65824;SHT31;52585;47.566;19.056;2023-01-29T05:21:37;3.54;69.00
65824;SHT31;52585;47.566;19.056;2023-01-29T05:24:05;3.54;69.00
65824;SHT31;52585;47.566;19.056;2023-01-29T05:26:41;3.55;68.97
65824;SHT31;52585;47.566;19.056;2023-01-29T05:29:28;3.54;68.90
65824;SHT31;52585;47.566;19.056;2023-01-29T05:31:54;3.56;68.87
65824;SHT31;52585;47.566;19.056;2023-01-29T05:34:20;3.58;68.88
65824;SHT31;52585;47.566;19.056;2023-01-29T05:36:45;3.61;68.92
65824;SHT31;52585;47.566;19.056;2023-01-29T05:39:11;3.63;68.92
65824;SHT31;52585;47.566;19.056;2023-01-29T05:41:37;3.64;68.86
65824;SHT31;52585;47.566;19.056;2023-01-29T05:44:02;3.61;68.70
65824;SHT31;52585;47.566;19.056;2023-01-29T05:46:28;3.61;68.74
65824;SHT31;52585;47.566;19.056;2023-01-29T05:48:54;3.60;68.72
65824;SHT31;52585;47.566;19.056;2023-01-29T05:51:19;3.59;68.72
65824;SHT31;52585;47.566;19.056;2023-01-29T05:53:45;3.60;68.71
65824;SHT31;52585;47.566;19.056;2023-01-29T05:56:10;3.59;68.70
65824;SHT31;52585;47.566;19.056;2023-01-29T05:58:36;3.59;68.65
65824;SHT31;52585;47.566;19.056;2023-01-29T06:01:13;3.57;68.67
65824;SHT31;52585;47.566;19.056;2023-01-29T06:03:45;3.55;68.72
65824;SHT31;52585;47.566;19.056;2023-01-29T06:06:12;3.54;68.80
65824;SHT31;52585;47.566;19.056;2023-01-29T06:08:38;3.55;68.81
65824;SHT31;52585;47.566;19.056;2023-01-29T06:11:08;3.56;68.82
65824;SHT31;52585;47.566;19.056;2023-01-29T06:13:35;3.57;68.90
65824;SHT31;52585;47.566;19.056;2023-01-29T06:16:05;3.58;68.92
65824;SHT31;52585;47.566;19.056;2023-01-29T06:18:32;3.57;68.83
65824;SHT31;52585;47.566;19.056;2023-01-29T06:21:00;3.55;68.87
65824;SHT31;52585;47.566;19.056;2023-01-29T06:23:28;3.58;68.85
65824;SHT31;52585;47.566;19.056;2023-01-29T06:25:58;3.58;68.84
65824;SHT31;52585;47.566;19.056;2023-01-29T06:28:29;3.59;68.85
65824;SHT31;52585;47.566;19.056;2023-01-29T06:30:59;3.58;68.84
65824;SHT31;52585;47.566;19.056;2023-01-29T06:33:27;3.58;68.85
65824;SHT31;52585;47.566;19.056;2023-01-29T06:35:56;3.58;68.89
65824;SHT31;52585;47.566;19.056;2023-01-29T06:38:27;3.57;68.89
65824;SHT31;52585;47.566;19.056;2023-01-29T06:40:54;3.56;68.85
65824;SHT31;52585;47.566;19.056;2023-01-29T06:43:20;3.57;69.01
65824;SHT31;52585;47.566;19.056;2023-01-29T06:45:52;3.58;69.09
65824;SHT31;52585;47.566;19.056;2023-01-29T06:48:21;3.59;69.12
65824;SHT31;52585;47.566;19.056;2023-01-29T06:50:48;3.61;69.10
65824;SHT31;52585;47.566;19.056;2023-01-29T06:53:15;3.62;69.08
65824;SHT31;52585;47.566;19.056;2023-01-29T06:55:42;3.62;69.01
65824;SHT31;52585;47.566;19.056;2023-01-29T06:58:15;3.64;69.00
65824;SHT31;52585;47.566;19.056;2023-01-29T07:00:40;3.64;68.90
65824;SHT31;52585;47.566;19.056;2023-01-29T07:03:07;3.60;68.90
65824;SHT31;52585;47.566;19.056;2023-01-29T07:05:34;3.58;68.91
65824;SHT31;52585;47.566;19.056;2023-01-29T07:08:00;3.59;68.95
65824;SHT31;52585;47.566;19.056;2023-01-29T07:10:26;3.57;68.91
65824;SHT31;52585;47.566;19.056;2023-01-29T07:12:51;3.56;68.96
65824;SHT31;52585;47.566;19.056;2023-01-29T07:15:17;3.56;68.91
65824;SHT31;52585;47.566;19.056;2023-01-29T07:17:55;3.57;69.01
65824;SHT31;52585;47.566;19.056;2023-01-29T07:20:26;3.57;69.05
65824;SHT31;52585;47.566;19.056;2023-01-29T07:22:55;3.58;69.14
65824;SHT31;52585;47.566;19.056;2023-01-29T07:25:22;3.57;69.11
65824;SHT31;52585;47.566;19.056;2023-01-29T07:27:49;3.60;69.01
65824;SHT31;52585;47.566;19.056;2023-01-29T07:30:15;3.62;69.00
65824;SHT31;52585;47.566;19.056;2023-01-29T07:32:41;3.63;68.93
65824;SHT31;52585;47.566;19.056;2023-01-29T07:35:07;3.63;68.84
65824;SHT31;52585;47.566;19.056;2023-01-29T07:37:34;3.61;68.83
65824;SHT31;52585;47.566;19.056;2023-01-29T07:39:59;3.59;68.86
65824;SHT31;52585;47.566;19.056;2023-01-29T07:42:25;3.60;68.81
65824;SHT31;52585;47.566;19.056;2023-01-29T07:44:50;3.58;68.70
65824;SHT31;52585;47.566;19.056;2023-01-29T07:47:16;3.57;68.74
65824;SHT31;52585;47.566;19.056;2023-01-29T07:49:42;3.56;68.80
65824;SHT31;52585;47.566;19.056;2023-01-29T07:52:07;3.58;68.78
65824;SHT31;52585;47.566;19.056;2023-01-29T07:54:33;3.59;68.73
65824;SHT31;52585;47.566;19.056;2023-01-29T07:56:58;3.62;68.73
65824;SHT31;52585;47.566;19.056;2023-01-29T07:59:24;3.60;68.71
65824;SHT31;52585;47.566;19.056;2023-01-29T08:01:49;3.62;68.70
65824;SHT31;52585;47.566;19.056;2023-01-29T08:04:15;3.64;68.71
65824;SHT31;52585;47.566;19.056;2023-01-29T08:06:40;3.64;68.69
65824;SHT31;52585;47.566;19.056;2023-01-29T08:09:06;3.65;68.64
65824;SHT31;52585;47.566;19.056;2023-01-29T08:11:32;3.65;68.58
65824;SHT31;52585;47.566;19.056;2023-01-29T08:13:58;3.65;68.54
65824;SHT31;52585;47.566;19.056;2023-01-29T08:16:24;3.66;68.49
65824;SHT31;52585;47.566;19.056;2023-01-29T08:18:50;3.65;68.40
65824;SHT31;52585;47.566;19.056;2023-01-29T08:21:15;3.65;68.41
65824;SHT31;52585;47.566;19.056;2023-01-29T08:23:41;3.63;68.32
65824;SHT31;52585;47.566;19.056;2023-01-29T08:26:07;3.62;68.35
65824;SHT31;52585;47.566;19.056;2023-01-29T08:28:33;3.60;68.23
65824;SHT31;52585;47.566;19.056;2023-01-29T08:31:02;3.59;68.17
65824;SHT31;52585;47.566;19.056;2023-01-29T08:33:28;3.60;68.21
65824;SHT31;52585;47.566;19.056;2023-01-29T08:35:55;3.63;68.25
65824;SHT31;52585;47.566;19.056;2023-01-29T08:38:20;3.67;68.28
65824;SHT31;52585;47.566;19.056;2023-01-29T08:40:46;3.68;68.24
65824;SHT31;52585;47.566;19.056;2023-01-29T08:43:12;3.69;68.24
65824;SHT31;52585;47.566;19.056;2023-01-29T08:45:41;3.70;68.18
65824;SHT31;52585;47.566;19.056;2023-01-29T08:48:08;3.71;68.12
65824;SHT31;52585;47.566;19.056;2023-01-29T08:50:35;3.72;68.06
65824;SHT31;52585;47.566;19.056;2023-01-29T08:53:05;3.73;68.01
65824;SHT31;52585;47.566;19.056;2023-01-29T08:55:36;3.71;67.97
65824;SHT31;52585;47.566;19.056;2023-01-29T08:58:05;3.68;67.88
65824;SHT31;52585;47.566;19.056;2023-01-29T09:00:33;3.64;67.88
65824;SHT31;52585;47.566;19.056;2023-01-29T09:02:59;3.64;67.90
65824;SHT31;52585;47.566;19.056;2023-01-29T09:05:26;3.63;67.80
65824;SHT31;52585;47.566;19.056;2023-01-29T09:07:53;3.57;67.74
65824;SHT31;52585;47.566;19.056;2023-01-29T09:10:21;3.56;67.73
65824;SHT31;52585;47.566;19.056;2023-01-29T09:12:47;3.55;67.66
65824;SHT31;52585;47.566;19.056;2023-01-29T09:15:13;3.53;67.63
65824;SHT31;52585;47.566;19.056;2023-01-29T09:17:38;3.51;67.57
65824;SHT31;52585;47.566;19.056;2023-01-29T09:20:05;3.54;67.54
65824;SHT31;52585;47.566;19.056;2023-01-29T09:22:32;3.56;67.55
65824;SHT31;52585;47.566;19.056;2023-01-29T09:24:58;3.57;67.51
65824;SHT31;52585;47.566;19.056;2023-01-29T09:27:24;3.59;67.48
65824;SHT31;52585;47.566;19.056;2023-01-29T09:29:49;3.61;67.46
65824;SHT31;52585;47.566;19.056;2023-01-29T09:32:15;3.65;67.39
65824;SHT31;52585;47.566;19.056;2023-01-29T09:34:41;3.65;67.33
65824;SHT31;52585;47.566;19.056;2023-01-29T09:37:06;3.65;67.29
65824;SHT31;52585;47.566;19.056;2023-01-29T09:39:32;3.65;67.20
65824;SHT31;52585;47.566;19.056;2023-01-29T09:42:02;3.65;67.23
65824;SHT31;52585;47.566;19.056;2023-01-29T09:47:23;3.58;67.17
65824;SHT31;52585;47.566;19.056;2023-01-29T09:49:53;3.54;67.06
65824;SHT31;52585;47.566;19.056;2023-01-29T09:52:30;3.52;66.96
65824;SHT31;52585;47.566;19.056;2023-01-29T09:55:09;3.48;66.96
65824;SHT31;52585;47.566;19.056;2023-01-29T09:57:56;3.47;66.86
65824;SHT31;52585;47.566;19.056;2023-01-29T10:03:59;3.51;66.85
65824;SHT31;52585;47.566;19.056;2023-01-29T10:27:18;3.45;66.52
65824;SHT31;52585;47.566;19.056;2023-01-29T10:29:46;3.45;66.52
65824;SHT31;52585;47.566;19.056;2023-01-29T10:32:17;3.47;66.45
65824;SHT31;52585;47.566;19.056;2023-01-29T10:37:47;3.56;65.99
65824;SHT31;52585;47.566;19.056;2023-01-29T10:40:17;3.60;65.98
65824;SHT31;52585;47.566;19.056;2023-01-29T10:43:03;3.63;65.98
65824;SHT31;52585;47.566;19.056;2023-01-29T10:46:03;3.65;66.02
65824;SHT31;52585;47.566;19.056;2023-01-29T11:00:20;3.57;65.65
65824;SHT31;52585;47.566;19.056;2023-01-29T11:02:54;3.54;65.52
65824;SHT31;52585;47.566;19.056;2023-01-29T11:08:50;3.50;65.37
65824;SHT31;52585;47.566;19.056;2023-01-29T11:11:32;3.46;65.25
65824;SHT31;52585;47.566;19.056;2023-01-29T11:14:11;3.47;65.35
65824;SHT31;52585;47.566;19.056;2023-01-29T11:16:44;3.42;65.05
65824;SHT31;52585;47.566;19.056;2023-01-29T11:19:12;3.41;64.99
65824;SHT31;52585;47.566;19.056;2023-01-29T11:24:22;3.44;64.98
65824;SHT31;52585;47.566;19.056;2023-01-29T11:26:50;3.44;64.80
65824;SHT31;52585;47.566;19.056;2023-01-29T11:31:57;3.50;64.70
65824;SHT31;52585;47.566;19.056;2023-01-29T11:34:27;3.50;64.62
65824;SHT31;52585;47.566;19.056;2023-01-29T11:37:03;3.48;64.57
65824;SHT31;52585;47.566;19.056;2023-01-29T11:39:43;3.47;64.45
65824;SHT31;52585;47.566;19.056;2023-01-29T11:42:17;3.48;64.44
65824;SHT31;52585;47.566;19.056;2023-01-29T11:44:46;3.49;64.37
65824;SHT31;52585;47.566;19.056;2023-01-29T11:49:44;3.49;64.34
65824;SHT31;52585;47.566;19.056;2023-01-29T11:52:18;3.47;64.18
65824;SHT31;52585;47.566;19.056;2023-01-29T11:59:59;3.43;64.07
65824;SHT31;52585;47.566;19.056;2023-01-29T12:02:35;3.41;63.58
65824;SHT31;52585;47.566;19.056;2023-01-29T12:07:47;3.43;63.77
65824;SHT31;52585;47.566;19.056;2023-01-29T12:10:35;3.42;63.66
65824;SHT31;52585;47.566;19.056;2023-01-29T12:15:38;3.41;63.29
65824;SHT31;52585;47.566;19.056;2023-01-29T12:21:19;3.44;63.15
65824;SHT31;52585;47.566;19.056;2023-01-29T12:24:04;3.47;63.09
65824;SHT31;52585;47.566;19.056;2023-01-29T12:27:06;3.48;63.13
65824;SHT31;52585;47.566;19.056;2023-01-29T12:30:06;3.51;63.10
65824;SHT31;52585;47.566;19.056;2023-01-29T12:35:36;3.54;63.03
65824;SHT31;52585;47.566;19.056;2023-01-29T12:38:15;3.55;62.97
65824;SHT31;52585;47.566;19.056;2023-01-29T12:43:47;3.55;62.70
65824;SHT31;52585;47.566;19.056;2023-01-29T12:46:25;3.52;62.81
65824;SHT31;52585;47.566;19.056;2023-01-29T12:48:58;3.49;62.56
65824;SHT31;52585;47.566;19.056;2023-01-29T12:51:38;3.51;62.40
65824;SHT31;52585;47.566;19.056;2023-01-29T12:54:17;3.53;62.57
65824;SHT31;52585;47.566;19.056;2023-01-29T12:57:00;3.50;62.43
65824;SHT31;52585;47.566;19.056;2023-01-29T12:59:40;3.51;62.48
65824;SHT31;52585;47.566;19.056;2023-01-29T13:02:19;3.50;62.73
65824;SHT31;52585;47.566;19.056;2023-01-29T13:04:58;3.44;62.39
65824;SHT31;52585;47.566;19.056;2023-01-29T13:07:38;3.46;62.35
65824;SHT31;52585;47.566;19.056;2023-01-29T13:10:12;3.49;62.28
65824;SHT31;52585;47.566;19.056;2023-01-29T13:13:34;3.49;62.11
65824;SHT31;52585;47.566;19.056;2023-01-29T13:15:42;3.47;62.16
65824;SHT31;52585;47.566;19.056;2023-01-29T13:20:59;3.48;62.02
65824;SHT31;52585;47.566;19.056;2023-01-29T13:23:39;3.50;62.11
65824;SHT31;52585;47.566;19.056;2023-01-29T13:26:18;3.54;62.02
65824;SHT31;52585;47.566;19.056;2023-01-29T13:28:46;3.55;61.96
65824;SHT31;52585;47.566;19.056;2023-01-29T13:31:22;3.54;62.06
65824;SHT31;52585;47.566;19.056;2023-01-29T13:36:56;3.49;61.68
65824;SHT31;52585;47.566;19.056;2023-01-29T13:39:33;3.51;61.83
65824;SHT31;52585;47.566;19.056;2023-01-29T13:42:44;3.52;61.69
65824;SHT31;52585;47.566;19.056;2023-01-29T13:45:08;3.50;61.65
65824;SHT31;52585;47.566;19.056;2023-01-29T13:47:45;3.50;61.65
65824;SHT31;52585;47.566;19.056;2023-01-29T13:53:02;3.53;61.65
65824;SHT31;52585;47.566;19.056;2023-01-29T13:55:36;3.52;61.87
65824;SHT31;52585;47.566;19.056;2023-01-29T13:58:18;3.52;61.69
65824;SHT31;52585;47.566;19.056;2023-01-29T14:01:07;3.52;61.63
65824;SHT31;52585;47.566;19.056;2023-01-29T14:03:40;3.55;61.70
65824;SHT31;52585;47.566;19.056;2023-01-29T14:06:09;3.55;61.67
65824;SHT31;52585;47.566;19.056;2023-01-29T14:13:47;3.52;61.63
65824;SHT31;52585;47.566;19.056;2023-01-29T14:21:24;3.51;61.17
65824;SHT31;52585;47.566;19.056;2023-01-29T14:26:39;3.47;61.57
65824;SHT31;52585;47.566;19.056;2023-01-29T14:31:57;3.32;60.98
65824;SHT31;52585;47.566;19.056;2023-01-29T14:34:49;3.32;61.16
65824;SHT31;52585;47.566;19.056;2023-01-29T14:40:07;3.33;61.02
65824;SHT31;52585;47.566;19.056;2023-01-29T14:55:30;3.25;60.87
65824;SHT31;52585;47.566;19.056;2023-01-29T14:58:24;3.24;60.93
65824;SHT31;52585;47.566;19.056;2023-01-29T15:04:16;3.23;60.91
65824;SHT31;52585;47.566;19.056;2023-01-29T15:09:32;3.21;61.01
65824;SHT31;52585;47.566;19.056;2023-01-29T15:14:56;3.19;61.00
65824;SHT31;52585;47.566;19.056;2023-01-29T15:17:39;3.17;60.77
65824;SHT31;52585;47.566;19.056;2023-01-29T15:20:37;3.16;60.93
65824;SHT31;52585;47.566;19.056;2023-01-29T15:26:12;3.15;60.62
65824;SHT31;52585;47.566;19.056;2023-01-29T15:28:55;3.15;60.61
65824;SHT31;52585;47.566;19.056;2023-01-29T15:31:24;3.14;60.74
65824;SHT31;52585;47.566;19.056;2023-01-29T15:33:52;3.09;60.68
65824;SHT31;52585;47.566;19.056;2023-01-29T15:36:21;3.06;60.59
65824;SHT31;52585;47.566;19.056;2023-01-29T15:41:45;3.02;60.45
65824;SHT31;52585;47.566;19.056;2023-01-29T15:44:13;3.00;60.53
65824;SHT31;52585;47.566;19.056;2023-01-29T15:47:00;3.00;60.72
65824;SHT31;52585;47.566;19.056;2023-01-29T15:49:30;2.99;60.58
65824;SHT31;52585;47.566;19.056;2023-01-29T15:52:02;3.00;60.52
65824;SHT31;52585;47.566;19.056;2023-01-29T15:55:04;2.96;60.31
65824;SHT31;52585;47.566;19.056;2023-01-29T15:57:36;2.96;60.39
65824;SHT31;52585;47.566;19.056;2023-01-29T16:00:07;2.97;60.52
65824;SHT31;52585;47.566;19.056;2023-01-29T16:02:52;2.95;60.50
65824;SHT31;52585;47.566;19.056;2023-01-29T16:05:28;2.93;60.56
65824;SHT31;52585;47.566;19.056;2023-01-29T16:07:57;2.93;60.77
65824;SHT31;52585;47.566;19.056;2023-01-29T16:10:26;2.92;60.64
65824;SHT31;52585;47.566;19.056;2023-01-29T16:12:55;2.94;60.66
65824;SHT31;52585;47.566;19.056;2023-01-29T16:15:26;2.94;60.68
65824;SHT31;52585;47.566;19.056;2023-01-29T16:18:00;2.93;60.58
65824;SHT31;52585;47.566;19.056;2023-01-29T16:20:43;2.93;60.56
65824;SHT31;52585;47.566;19.056;2023-01-29T16:23:19;2.91;60.55
65824;SHT31;52585;47.566;19.056;2023-01-29T16:25:51;2.87;60.58
65824;SHT31;52585;47.566;19.056;2023-01-29T16:28:20;2.85;60.66
65824;SHT31;52585;47.566;19.056;2023-01-29T16:30:53;2.83;60.71
65824;SHT31;52585;47.566;19.056;2023-01-29T16:33:29;2.85;60.78
65824;SHT31;52585;47.566;19.056;2023-01-29T16:36:03;2.85;60.79
65824;SHT31;52585;47.566;19.056;2023-01-29T16:38:53;2.86;60.70
65824;SHT31;52585;47.566;19.056;2023-01-29T16:41:30;2.85;60.95
65824;SHT31;52585;47.566;19.056;2023-01-29T16:44:25;2.83;60.89
65824;SHT31;52585;47.566;19.056;2023-01-29T16:47:24;2.82;60.80
65824;SHT31;52585;47.566;19.056;2023-01-29T16:55:47;2.75;60.75
65824;SHT31;52585;47.566;19.056;2023-01-29T16:58:24;2.75;60.74
65824;SHT31;52585;47.566;19.056;2023-01-29T17:01:01;2.73;60.57
65824;SHT31;52585;47.566;19.056;2023-01-29T17:03:33;2.72;60.61
65824;SHT31;52585;47.566;19.056;2023-01-29T17:08:38;2.70;60.55
65824;SHT31;52585;47.566;19.056;2023-01-29T17:11:07;2.69;60.64
65824;SHT31;52585;47.566;19.056;2023-01-29T17:13:40;2.68;60.59
65824;SHT31;52585;47.566;19.056;2023-01-29T17:18:50;2.66;60.69
65824;SHT31;52585;47.566;19.056;2023-01-29T17:21:16;2.64;60.79
65824;SHT31;52585;47.566;19.056;2023-01-29T17:23:42;2.62;60.77
65824;SHT31;52585;47.566;19.056;2023-01-29T17:26:10;2.59;60.64
65824;SHT31;52585;47.566;19.056;2023-01-29T17:28:39;2.56;60.72
65824;SHT31;52585;47.566;19.056;2023-01-29T17:31:07;2.55;60.72
65824;SHT31;52585;47.566;19.056;2023-01-29T17:33:34;2.52;60.89
65824;SHT31;52585;47.566;19.056;2023-01-29T17:36:09;2.49;60.95
65824;SHT31;52585;47.566;19.056;2023-01-29T17:38:44;2.47;60.95
65824;SHT31;52585;47.566;19.056;2023-01-29T17:41:26;2.44;61.00
65824;SHT31;52585;47.566;19.056;2023-01-29T17:43:54;2.40;61.12
65824;SHT31;52585;47.566;19.056;2023-01-29T17:46:22;2.38;61.10
65824;SHT31;52585;47.566;19.056;2023-01-29T17:48:48;2.38;61.07
65824;SHT31;52585;47.566;19.056;2023-01-29T17:51:15;2.38;61.09
65824;SHT31;52585;47.566;19.056;2023-01-29T17:53:43;2.36;61.12
65824;SHT31;52585;47.566;19.056;2023-01-29T17:56:16;2.33;61.21
65824;SHT31;52585;47.566;19.056;2023-01-29T17:58:53;2.28;61.23
65824;SHT31;52585;47.566;19.056;2023-01-29T18:01:21;2.26;61.28
65824;SHT31;52585;47.566;19.056;2023-01-29T18:03:47;2.26;61.35
65824;SHT31;52585;47.566;19.056;2023-01-29T18:06:19;2.24;61.34
65824;SHT31;52585;47.566;19.056;2023-01-29T18:08:52;2.22;61.41
65824;SHT31;52585;47.566;19.056;2023-01-29T18:11:18;2.20;61.38
65824;SHT31;52585;47.566;19.056;2023-01-29T18:13:44;2.18;61.49
65824;SHT31;52585;47.566;19.056;2023-01-29T18:16:10;2.16;61.53
65824;SHT31;52585;47.566;19.056;2023-01-29T18:18:37;2.14;61.57
65824;SHT31;52585;47.566;19.056;2023-01-29T18:21:04;2.11;61.54
65824;SHT31;52585;47.566;19.056;2023-01-29T18:23:32;2.10;61.58
65824;SHT31;52585;47.566;19.056;2023-01-29T18:25:58;2.08;61.59
65824;SHT31;52585;47.566;19.056;2023-01-29T18:28:24;2.07;61.51
65824;SHT31;52585;47.566;19.056;2023-01-29T18:30:50;2.05;61.50
65824;SHT31;52585;47.566;19.056;2023-01-29T18:33:17;2.05;61.50
65824;SHT31;52585;47.566;19.056;2023-01-29T18:35:47;2.04;61.43
65824;SHT31;52585;47.566;19.056;2023-01-29T18:38:13;2.06;61.32
65824;SHT31;52585;47.566;19.056;2023-01-29T18:40:41;2.07;61.26
65824;SHT31;52585;47.566;19.056;2023-01-29T18:43:07;2.07;61.22
65824;SHT31;52585;47.566;19.056;2023-01-29T18:45:35;2.08;61.28
65824;SHT31;52585;47.566;19.056;2023-01-29T18:48:02;2.07;61.30
65824;SHT31;52585;47.566;19.056;2023-01-29T18:50:29;2.07;61.34
65824;SHT31;52585;47.566;19.056;2023-01-29T18:52:55;2.07;61.27
65824;SHT31;52585;47.566;19.056;2023-01-29T18:55:22;2.07;61.21
65824;SHT31;52585;47.566;19.056;2023-01-29T18:57:51;2.04;61.26
65824;SHT31;52585;47.566;19.056;2023-01-29T19:00:19;2.03;61.26
65824;SHT31;52585;47.566;19.056;2023-01-29T19:02:50;2.01;61.28
65824;SHT31;52585;47.566;19.056;2023-01-29T19:05:17;1.99;61.33
65824;SHT31;52585;47.566;19.056;2023-01-29T19:07:46;1.96;61.42
65824;SHT31;52585;47.566;19.056;2023-01-29T19:10:12;1.94;61.39